createdAt,value
2023-04-14T00:00:23.168Z,7.05
2023-04-14T00:02:49.774Z,7.07
2023-04-14T00:05:16.460Z,7.47
2023-04-14T00:07:43.028Z,7.47
2023-04-14T00:10:09.860Z,7.13
2023-04-14T00:12:36.479Z,7.50
2023-04-14T00:15:03.108Z,6.50
2023-04-14T00:17:30.770Z,7.07
2023-04-14T00:19:57.268Z,7.43
2023-04-14T00:22:23.685Z,7.88
2023-04-14T00:24:50.870Z,7.35
2023-04-14T00:27:17.386Z,8.20
2023-04-14T00:29:43.865Z,7.93
2023-04-14T00:32:10.379Z,7.40
2023-04-14T00:34:36.805Z,6.80
2023-04-14T00:37:03.283Z,6.25
2023-04-14T00:39:29.940Z,5.65
2023-04-14T00:41:56.769Z,4.85
2023-04-14T00:44:25.390Z,5.05
2023-04-14T00:46:52.912Z,4.30
2023-04-14T00:49:20.066Z,4.38
2023-04-14T00:51:48.147Z,4.45
2023-04-14T00:54:15.304Z,4.05
2023-04-14T00:56:42.121Z,4.88
2023-04-14T00:59:09.144Z,5.05
2023-04-14T01:01:38.678Z,4.60
2023-04-14T01:04:05.656Z,4.95
2023-04-14T01:06:33.029Z,4.60
2023-04-14T01:08:59.849Z,3.90
2023-04-14T01:11:45.360Z,4.35
2023-04-14T01:14:39.344Z,5.15
2023-04-14T01:17:09.308Z,5.10
2023-04-14T01:19:50.932Z,5.40
2023-04-14T01:22:18.686Z,5.05
2023-04-14T01:25:03.344Z,4.57
2023-04-14T01:27:32.698Z,4.63
2023-04-14T01:30:14.215Z,3.75
2023-04-14T01:32:43.127Z,4.22
2023-04-14T01:35:17.472Z,3.88
2023-04-14T01:37:54.249Z,4.25
2023-04-14T01:40:22.672Z,4.03
2023-04-14T01:42:52.219Z,4.82
2023-04-14T01:45:24.531Z,4.35
2023-04-14T01:47:51.670Z,4.53
2023-04-14T01:50:19.545Z,4.15
2023-04-14T01:52:50.518Z,5.00
2023-04-14T01:55:18.897Z,4.65
2023-04-14T01:57:49.565Z,4.45
2023-04-14T02:00:17.671Z,4.22
2023-04-14T02:02:45.663Z,3.30
2023-04-14T02:05:13.890Z,4.35
2023-04-14T02:07:41.113Z,3.67
2023-04-14T02:10:11.395Z,3.55
2023-04-14T02:12:40.151Z,3.53
2023-04-14T02:15:07.126Z,3.30
2023-04-14T02:17:34.449Z,3.85
2023-04-14T02:20:01.514Z,3.53
2023-04-14T02:22:27.956Z,4.07
2023-04-14T02:24:55.309Z,3.30
2023-04-14T02:27:30.853Z,2.92
2023-04-14T02:29:58.289Z,4.43
2023-04-14T02:32:25.470Z,3.47
2023-04-14T02:35:03.375Z,3.92
2023-04-14T02:37:35.782Z,3.03
2023-04-14T02:40:04.505Z,3.42
2023-04-14T02:42:32.026Z,2.75
2023-04-14T02:45:06.544Z,2.05
2023-04-14T02:47:34.255Z,2.25
2023-04-14T02:50:02.584Z,2.28
2023-04-14T02:52:31.621Z,1.63
2023-04-14T02:54:59.129Z,1.73
2023-04-14T02:57:26.164Z,1.98
2023-04-14T02:59:53.034Z,1.88
2023-04-14T03:02:20.419Z,1.83
2023-04-14T03:04:47.071Z,1.80
2023-04-14T03:07:14.565Z,1.50
2023-04-14T03:09:42.276Z,1.25
2023-04-14T03:12:12.229Z,1.30
2023-04-14T03:14:38.943Z,1.30
2023-04-14T03:17:05.752Z,1.40
2023-04-14T03:19:32.312Z,1.42
2023-04-14T03:22:00.231Z,1.20
2023-04-14T03:24:30.902Z,1.27
2023-04-14T03:26:59.907Z,1.10
2023-04-14T03:29:27.262Z,1.10
2023-04-14T03:31:55.264Z,1.15
2023-04-14T03:34:23.528Z,1.23
2023-04-14T03:36:50.965Z,1.23
2023-04-14T03:39:18.575Z,1.10
2023-04-14T03:41:47.884Z,0.93
2023-04-14T03:44:16.367Z,1.25
2023-04-14T03:46:42.930Z,1.15
2023-04-14T03:49:11.488Z,1.52
2023-04-14T03:51:41.649Z,1.60
2023-04-14T03:54:10.148Z,1.70
2023-04-14T03:56:38.315Z,1.42
2023-04-14T03:59:05.599Z,1.73
2023-04-14T04:01:32.863Z,2.08
2023-04-14T04:04:01.903Z,2.80
2023-04-14T04:06:28.578Z,3.22
2023-04-14T04:08:56.384Z,3.92
2023-04-14T04:11:23.291Z,3.30
2023-04-14T04:13:50.201Z,3.17
2023-04-14T04:16:17.013Z,3.40
2023-04-14T04:18:47.089Z,3.78
2023-04-14T04:21:16.154Z,4.43
2023-04-14T04:23:43.825Z,4.63
2023-04-14T04:26:10.321Z,4.85
2023-04-14T04:28:37.354Z,4.93
2023-04-14T04:31:04.639Z,5.10
2023-04-14T04:33:31.766Z,5.38
2023-04-14T04:35:58.419Z,5.88
2023-04-14T04:38:24.926Z,5.05
2023-04-14T04:40:51.542Z,6.25
2023-04-14T04:43:19.279Z,6.63
2023-04-14T04:45:58.093Z,6.75
2023-04-14T04:48:24.890Z,6.78
2023-04-14T04:50:51.420Z,7.47
2023-04-14T04:53:17.890Z,7.03
2023-04-14T04:55:44.407Z,8.15
2023-04-14T04:58:11.249Z,8.07
2023-04-14T05:00:37.699Z,8.90
2023-04-14T05:03:04.337Z,8.73
2023-04-14T05:05:35.357Z,8.20
2023-04-14T05:08:02.228Z,8.60
2023-04-14T05:10:28.846Z,8.30
2023-04-14T05:12:55.286Z,8.60
2023-04-14T05:15:21.938Z,8.75
2023-04-14T05:17:48.362Z,7.68
2023-04-14T05:20:14.857Z,7.90
2023-04-14T05:22:41.632Z,8.93
2023-04-14T05:25:08.284Z,8.25
2023-04-14T05:27:34.815Z,7.78
2023-04-14T05:30:01.564Z,8.50
2023-04-14T05:32:29.220Z,7.78
2023-04-14T05:34:56.197Z,8.23
2023-04-14T05:37:22.641Z,8.57
2023-04-14T05:39:49.099Z,8.48
2023-04-14T05:42:15.622Z,8.45
2023-04-14T05:44:42.120Z,8.20
2023-04-14T05:47:08.567Z,6.70
2023-04-14T05:49:35.017Z,6.93
2023-04-14T05:52:01.554Z,7.05
2023-04-14T05:54:28.123Z,7.38
2023-04-14T05:56:54.714Z,7.10
2023-04-14T05:59:21.272Z,5.65
2023-04-14T06:01:47.815Z,4.95
2023-04-14T06:04:15.408Z,4.95
2023-04-14T06:06:42.228Z,4.78
2023-04-14T06:09:08.754Z,4.78
2023-04-14T06:11:35.229Z,3.63
2023-04-14T06:14:02.961Z,3.17
2023-04-14T06:16:29.712Z,3.70
2023-04-14T06:18:56.335Z,4.55
2023-04-14T06:21:22.818Z,4.18
2023-04-14T06:23:49.254Z,3.58
2023-04-14T06:26:15.908Z,3.35
2023-04-14T06:28:43.812Z,3.17
2023-04-14T06:31:10.837Z,3.20
2023-04-14T06:33:37.303Z,3.08
2023-04-14T06:36:03.901Z,3.05
2023-04-14T06:38:30.361Z,2.58
2023-04-14T06:40:56.769Z,2.72
2023-04-14T06:43:23.253Z,2.42
2023-04-14T06:45:51.055Z,2.05
2023-04-14T06:48:17.725Z,2.20
2023-04-14T06:50:44.514Z,2.38
2023-04-14T06:53:11.295Z,2.20
2023-04-14T06:55:41.173Z,3.00
2023-04-14T06:58:07.698Z,2.40
2023-04-14T07:00:34.216Z,2.60
2023-04-14T07:03:00.859Z,2.28
2023-04-14T07:05:27.322Z,1.67
2023-04-14T07:07:53.795Z,2.30
2023-04-14T07:10:20.347Z,2.05
2023-04-14T07:12:46.783Z,1.83
2023-04-14T07:15:14.449Z,2.20
2023-04-14T07:17:41.014Z,2.22
2023-04-14T07:20:07.857Z,3.25
2023-04-14T07:22:34.485Z,1.65
2023-04-14T07:25:00.884Z,1.30
2023-04-14T07:27:28.749Z,2.30
2023-04-14T07:29:55.222Z,1.70
2023-04-14T07:32:21.971Z,1.85
2023-04-14T07:34:48.636Z,1.50
2023-04-14T07:37:16.418Z,1.60
2023-04-14T07:39:42.856Z,1.48
2023-04-14T07:42:09.350Z,1.88
2023-04-14T07:44:35.947Z,1.98
2023-04-14T07:47:02.412Z,2.42
2023-04-14T07:49:28.922Z,1.50
2023-04-14T07:51:56.193Z,1.60
2023-04-14T07:54:23.241Z,1.80
2023-04-14T07:56:49.780Z,2.35
2023-04-14T07:59:16.192Z,2.47
2023-04-14T08:01:42.696Z,1.98
2023-04-14T08:04:09.299Z,2.00
2023-04-14T08:06:35.922Z,2.20
2023-04-14T08:09:02.869Z,2.10
2023-04-14T08:11:29.535Z,1.83
2023-04-14T08:13:56.062Z,1.80
2023-04-14T08:16:22.861Z,1.70
2023-04-14T08:18:49.512Z,1.58
2023-04-14T08:21:16.861Z,1.48
2023-04-14T08:23:43.352Z,1.30
2023-04-14T08:26:09.890Z,1.35
2023-04-14T08:28:37.148Z,1.30
2023-04-14T08:31:03.642Z,1.30
2023-04-14T08:33:30.232Z,1.70
2023-04-14T08:36:00.350Z,1.50
2023-04-14T08:38:28.109Z,1.77
2023-04-14T08:40:56.051Z,1.67
2023-04-14T08:43:22.623Z,1.55
2023-04-14T08:45:51.405Z,1.52
2023-04-14T08:48:19.831Z,1.27
2023-04-14T08:51:04.848Z,1.10
2023-04-14T08:53:32.748Z,0.75
2023-04-14T08:56:00.300Z,0.90
2023-04-14T08:58:26.934Z,1.50
2023-04-14T09:00:53.537Z,0.88
2023-04-14T09:03:20.495Z,0.80
2023-04-14T09:05:47.684Z,0.70
2023-04-14T09:08:14.145Z,0.85
2023-04-14T09:10:42.836Z,0.70
2023-04-14T09:13:11.723Z,0.90
2023-04-14T09:15:38.299Z,1.00
2023-04-14T09:18:04.836Z,0.70
2023-04-14T09:20:35.961Z,0.85
2023-04-14T09:23:07.393Z,0.60
2023-04-14T09:25:34.246Z,0.68
2023-04-14T09:28:00.741Z,0.85
2023-04-14T09:30:27.330Z,1.20
2023-04-14T09:32:54.029Z,1.05
2023-04-14T09:35:20.624Z,1.20
2023-04-14T09:37:48.739Z,1.17
2023-04-14T09:40:27.951Z,1.10
2023-04-14T09:42:56.060Z,1.30
2023-04-14T09:45:22.798Z,1.25
2023-04-14T09:47:52.380Z,1.33
2023-04-14T09:50:18.955Z,1.50
2023-04-14T09:52:46.765Z,1.17
2023-04-14T09:55:14.296Z,1.30
2023-04-14T09:57:44.713Z,1.30
2023-04-14T10:00:22.308Z,1.42
2023-04-14T10:02:49.292Z,1.40
2023-04-14T10:05:18.816Z,1.67
2023-04-14T10:07:45.341Z,1.60
2023-04-14T10:10:13.354Z,1.50
2023-04-14T10:12:43.965Z,1.40
2023-04-14T10:15:11.200Z,1.55
2023-04-14T10:17:38.477Z,1.33
2023-04-14T10:20:06.527Z,1.45
2023-04-14T10:22:33.245Z,1.35
2023-04-14T10:24:59.666Z,1.48
2023-04-14T10:27:27.268Z,2.15
2023-04-14T10:29:54.180Z,2.03
2023-04-14T10:32:21.692Z,2.67
2023-04-14T10:34:57.968Z,2.20
2023-04-14T10:37:24.927Z,2.47
2023-04-14T10:39:55.879Z,2.55
2023-04-14T10:42:22.871Z,2.35
2023-04-14T10:45:08.102Z,2.33
2023-04-14T10:47:37.499Z,2.70
2023-04-14T10:50:10.666Z,2.70
2023-04-14T10:52:38.157Z,2.95
2023-04-14T10:55:08.253Z,2.70
2023-04-14T10:57:41.180Z,3.15
2023-04-14T11:00:34.038Z,3.30
2023-04-14T11:03:05.403Z,3.45
2023-04-14T11:05:33.176Z,3.10
2023-04-14T11:08:03.106Z,3.00
2023-04-14T11:10:32.762Z,2.88
2023-04-14T11:13:04.087Z,3.30
2023-04-14T11:15:46.147Z,3.35
2023-04-14T11:18:16.584Z,3.10
2023-04-14T11:20:43.960Z,3.58
2023-04-14T11:23:12.660Z,2.85
2023-04-14T11:25:40.308Z,3.15
2023-04-14T11:28:07.428Z,3.05
2023-04-14T11:30:33.879Z,2.80
2023-04-14T11:33:00.808Z,2.90
2023-04-14T11:35:27.982Z,3.40
2023-04-14T11:37:58.088Z,3.40
2023-04-14T11:40:26.513Z,2.97
2023-04-14T11:42:54.694Z,4.30
2023-04-14T11:45:21.317Z,4.10
2023-04-14T11:47:58.416Z,4.40
2023-04-14T11:50:25.324Z,3.95
2023-04-14T11:52:52.382Z,4.93
2023-04-14T11:55:18.861Z,4.50
2023-04-14T11:57:45.837Z,4.88
2023-04-14T12:00:15.688Z,4.22
2023-04-14T12:02:42.857Z,4.13
2023-04-14T12:05:09.663Z,4.40
2023-04-14T12:07:36.320Z,3.95
2023-04-14T12:10:05.272Z,3.42
2023-04-14T12:12:34.514Z,3.10
2023-04-14T12:15:01.790Z,2.78
2023-04-14T12:17:28.482Z,3.17
2023-04-14T12:19:55.446Z,2.67
2023-04-14T12:22:27.066Z,2.95
2023-04-14T12:24:54.016Z,2.47
2023-04-14T12:27:22.533Z,2.00
2023-04-14T12:29:50.232Z,2.35
2023-04-14T12:32:17.611Z,2.40
2023-04-14T12:34:57.725Z,2.67
2023-04-14T12:37:26.448Z,2.50
2023-04-14T12:39:54.290Z,2.05
2023-04-14T12:42:20.811Z,2.17
2023-04-14T12:45:13.652Z,2.55
2023-04-14T12:47:40.243Z,2.92
2023-04-14T12:50:24.711Z,2.30
2023-04-14T12:52:52.547Z,2.60
2023-04-14T12:55:29.802Z,3.00
2023-04-14T12:57:59.622Z,2.42
2023-04-14T13:00:27.684Z,2.38
2023-04-14T13:02:55.638Z,2.30
2023-04-14T13:05:22.659Z,2.72
2023-04-14T13:07:49.211Z,2.90
2023-04-14T13:10:15.954Z,2.30
2023-04-14T13:12:42.676Z,1.90
2023-04-14T13:15:09.418Z,2.40
2023-04-14T13:17:56.010Z,1.85
2023-04-14T13:20:22.544Z,2.53
2023-04-14T13:22:49.035Z,1.60
2023-04-14T13:25:15.726Z,2.08
2023-04-14T13:27:42.224Z,2.30
2023-04-14T13:30:09.092Z,2.42
2023-04-14T13:32:35.915Z,2.45
2023-04-14T13:35:02.347Z,1.83
2023-04-14T13:37:28.933Z,1.73
2023-04-14T13:39:55.377Z,2.25
2023-04-14T13:42:22.002Z,2.63
2023-04-14T13:44:48.741Z,5.30
2023-04-14T13:47:15.261Z,2.47
2023-04-14T13:49:42.308Z,2.55
2023-04-14T13:52:08.789Z,2.30
2023-04-14T13:54:35.460Z,2.28
2023-04-14T13:57:02.108Z,1.88
2023-04-14T13:59:28.895Z,2.17
2023-04-14T14:01:55.532Z,2.15
2023-04-14T14:04:22.473Z,2.45
2023-04-14T14:06:49.030Z,2.03
2023-04-14T14:09:15.481Z,2.40
2023-04-14T14:11:42.124Z,2.20
2023-04-14T14:14:08.742Z,2.17
2023-04-14T14:16:37.052Z,2.88
2023-04-14T14:19:07.983Z,3.10
2023-04-14T14:21:34.464Z,3.00
2023-04-14T14:24:01.368Z,3.30
2023-04-14T14:26:27.992Z,3.97
2023-04-14T14:28:54.551Z,3.90
2023-04-14T14:31:21.103Z,3.97
2023-04-14T14:33:47.559Z,4.85
2023-04-14T14:36:15.073Z,5.22
2023-04-14T14:38:41.575Z,4.30
2023-04-14T14:41:08.082Z,4.10
2023-04-14T14:43:35.067Z,4.75
2023-04-14T14:46:02.161Z,5.10
2023-04-14T14:48:28.854Z,4.93
2023-04-14T14:50:55.393Z,4.78
2023-04-14T14:53:22.120Z,3.70
2023-04-14T14:55:48.602Z,3.55
2023-04-14T14:58:15.508Z,3.25
2023-04-14T15:00:42.154Z,3.35
2023-04-14T15:03:09.320Z,3.50
2023-04-14T15:05:36.675Z,3.92
2023-04-14T15:08:03.385Z,3.10
2023-04-14T15:10:29.836Z,3.60
2023-04-14T15:12:56.697Z,3.70
2023-04-14T15:15:23.269Z,3.80
2023-04-14T15:17:49.846Z,4.22
2023-04-14T15:20:16.382Z,4.30
2023-04-14T15:22:42.895Z,4.03
2023-04-14T15:25:09.705Z,4.13
2023-04-14T15:27:36.566Z,4.47
2023-04-14T15:30:03.417Z,3.53
2023-04-14T15:32:29.967Z,3.28
2023-04-14T15:34:57.095Z,3.67
2023-04-14T15:37:23.620Z,4.05
2023-04-14T15:39:57.844Z,4.10
2023-04-14T15:42:24.342Z,4.63
2023-04-14T15:44:53.617Z,4.70
2023-04-14T15:47:20.167Z,4.70
2023-04-14T15:49:46.670Z,4.53
2023-04-14T15:52:16.652Z,5.38
2023-04-14T15:54:43.207Z,4.93
2023-04-14T15:57:09.617Z,4.95
2023-04-14T15:59:36.404Z,4.15
2023-04-14T16:02:03.101Z,3.90
2023-04-14T16:04:30.108Z,2.53
2023-04-14T16:06:56.995Z,2.72
2023-04-14T16:09:23.539Z,2.10
2023-04-14T16:11:50.076Z,2.63
2023-04-14T16:14:16.641Z,2.60
2023-04-14T16:16:46.950Z,4.30
2023-04-14T16:19:17.164Z,4.63
2023-04-14T16:21:43.627Z,3.45
2023-04-14T16:24:10.654Z,5.18
2023-04-14T16:26:37.878Z,4.93
2023-04-14T16:29:04.505Z,4.47
2023-04-14T16:31:31.548Z,4.82
2023-04-14T16:33:58.161Z,4.85
2023-04-14T16:36:27.327Z,4.88
2023-04-14T16:38:54.387Z,5.50
2023-04-14T16:41:24.399Z,5.15
2023-04-14T16:43:51.066Z,4.88
2023-04-14T16:46:17.639Z,5.30
2023-04-14T16:48:44.112Z,4.78
2023-04-14T16:51:11.274Z,5.43
2023-04-14T16:53:38.756Z,5.68
2023-04-14T16:56:06.349Z,5.93
2023-04-14T16:58:34.146Z,6.28
2023-04-14T17:01:01.290Z,5.68
2023-04-14T17:03:29.138Z,7.03
2023-04-14T17:05:56.305Z,7.35
2023-04-14T17:08:22.857Z,6.20
2023-04-14T17:10:49.432Z,6.45
2023-04-14T17:13:16.211Z,7.45
2023-04-14T17:15:43.900Z,6.57
2023-04-14T17:18:14.830Z,10.15
2023-04-14T17:20:41.467Z,5.90
2023-04-14T17:23:08.701Z,5.53
2023-04-14T17:25:37.211Z,5.80
2023-04-14T17:28:08.855Z,7.10
2023-04-14T17:30:37.176Z,6.80
2023-04-14T17:33:04.233Z,6.18
2023-04-14T17:35:31.360Z,6.55
2023-04-14T17:37:57.974Z,5.50
2023-04-14T17:40:24.558Z,5.50
2023-04-14T17:42:51.963Z,5.20
2023-04-14T17:45:22.988Z,5.47
2023-04-14T17:47:53.678Z,5.20
2023-04-14T17:50:23.870Z,5.78
2023-04-14T17:52:51.195Z,4.90
2023-04-14T17:55:17.840Z,5.03
2023-04-14T17:57:45.244Z,4.45
2023-04-14T18:00:12.058Z,5.28
2023-04-14T18:02:39.461Z,5.18
2023-04-14T18:05:06.434Z,5.45
2023-04-14T18:07:33.130Z,5.30
2023-04-14T18:09:59.878Z,5.05
2023-04-14T18:12:26.366Z,4.75
2023-04-14T18:14:53.287Z,4.72
2023-04-14T18:17:20.472Z,5.03
2023-04-14T18:19:47.139Z,4.40
2023-04-14T18:22:13.569Z,4.50
2023-04-14T18:29:39.112Z,5.85
2023-04-14T18:32:05.587Z,6.22
2023-04-14T18:34:32.378Z,6.30
2023-04-14T18:36:58.867Z,4.88
2023-04-14T18:39:25.354Z,5.88
2023-04-14T18:41:51.866Z,6.18
2023-04-14T18:44:18.332Z,6.68
2023-04-14T18:46:45.500Z,6.68
2023-04-14T18:49:12.154Z,6.60
2023-04-14T18:51:39.307Z,6.78
2023-04-14T18:54:05.785Z,6.70
2023-04-14T18:56:32.610Z,6.35
2023-04-14T18:59:00.002Z,5.78
2023-04-14T19:01:27.216Z,5.55
2023-04-14T19:03:55.134Z,5.97
2023-04-14T19:06:22.679Z,5.40
2023-04-14T19:08:49.187Z,7.00
2023-04-14T19:11:15.647Z,7.35
2023-04-14T19:13:42.438Z,6.18
2023-04-14T19:16:11.548Z,5.63
2023-04-14T19:18:39.598Z,6.20
2023-04-14T19:21:09.032Z,6.30
2023-04-14T19:23:35.967Z,6.90
2023-04-14T19:26:02.694Z,7.15
2023-04-14T19:28:29.411Z,6.80
2023-04-14T19:30:55.897Z,8.15
2023-04-14T19:33:22.598Z,8.20
2023-04-14T19:35:49.114Z,8.75
2023-04-14T19:38:15.611Z,9.57
2023-04-14T19:40:48.587Z,8.48
2023-04-14T19:43:16.274Z,8.48
2023-04-14T19:45:49.530Z,9.48
2023-04-14T19:48:23.386Z,9.73
2023-04-14T19:50:52.071Z,7.55
2023-04-14T19:53:19.678Z,8.77
2023-04-14T19:55:53.657Z,8.05
2023-04-14T19:58:21.480Z,8.65
2023-04-14T20:00:48.936Z,8.10
2023-04-14T20:03:15.451Z,7.72
2023-04-14T20:05:42.829Z,8.40
2023-04-14T20:08:09.319Z,8.50
2023-04-14T20:10:36.667Z,8.90
2023-04-14T20:13:03.752Z,7.93
2023-04-14T20:15:30.319Z,8.05
2023-04-14T20:17:57.216Z,7.50
2023-04-14T20:20:23.803Z,7.43
2023-04-14T20:22:50.453Z,7.55
2023-04-14T20:25:17.957Z,6.75
2023-04-14T20:27:45.109Z,7.18
2023-04-14T20:30:12.502Z,7.18
2023-04-14T20:32:39.130Z,6.15
2023-04-14T20:35:05.754Z,6.53
2023-04-14T20:37:32.249Z,5.65
2023-04-14T20:39:58.700Z,6.13
2023-04-14T20:42:25.278Z,6.20
2023-04-14T20:44:51.713Z,6.65
2023-04-14T20:47:18.176Z,6.22
2023-04-14T20:49:44.963Z,6.82
2023-04-14T20:52:11.426Z,6.75
2023-04-14T20:54:42.674Z,8.40
2023-04-14T20:57:09.703Z,8.82
2023-04-14T20:59:36.267Z,7.35
2023-04-14T21:02:03.190Z,7.25
2023-04-14T21:04:30.444Z,7.68
2023-04-14T21:06:57.453Z,6.65
2023-04-14T21:09:24.998Z,6.45
2023-04-14T21:12:14.317Z,6.32
2023-04-14T21:15:46.493Z,6.57
2023-04-14T21:17:27.787Z,5.85
2023-04-14T21:19:54.812Z,6.30
2023-04-14T21:22:21.255Z,5.97
2023-04-14T21:24:48.697Z,6.28
2023-04-14T21:27:16.296Z,7.05
2023-04-14T21:29:42.867Z,7.63
2023-04-14T21:32:09.674Z,7.53
2023-04-14T21:34:36.462Z,7.05
2023-04-14T21:37:03.721Z,8.45
2023-04-14T21:39:33.052Z,7.95
2023-04-14T21:42:00.383Z,8.15
2023-04-14T21:44:27.423Z,8.07
2023-04-14T21:46:54.476Z,7.95
2023-04-14T21:49:21.184Z,8.18
2023-04-14T21:51:47.670Z,7.15
2023-04-14T21:54:14.211Z,7.18
2023-04-14T21:56:41.797Z,7.40
2023-04-14T21:59:09.572Z,6.82
2023-04-14T22:01:36.455Z,6.93
2023-04-14T22:04:03.410Z,6.80
2023-04-14T22:06:30.044Z,6.60
2023-04-14T22:08:56.633Z,6.97
2023-04-14T22:11:23.824Z,7.15
2023-04-14T22:13:50.280Z,7.05
2023-04-14T22:16:18.239Z,6.18
2023-04-14T22:18:45.459Z,6.32
2023-04-14T22:21:14.397Z,6.40
2023-04-14T22:23:43.548Z,7.05
2023-04-14T22:26:10.266Z,6.85
2023-04-14T22:28:36.919Z,6.05
2023-04-14T22:31:03.619Z,6.30
2023-04-14T22:33:30.131Z,6.47
2023-04-14T22:35:56.933Z,5.93
2023-04-14T22:38:23.435Z,6.40
2023-04-14T22:40:52.239Z,5.72
2023-04-14T22:43:19.158Z,5.85
2023-04-14T22:45:45.762Z,5.97
2023-04-14T22:48:12.216Z,5.88
2023-04-14T22:50:38.972Z,5.32
2023-04-14T22:53:05.831Z,5.80
2023-04-14T22:55:32.919Z,6.15
2023-04-14T22:57:59.428Z,5.53
2023-04-14T23:00:26.654Z,5.60
2023-04-14T23:02:53.667Z,5.70
2023-04-14T23:05:20.221Z,5.35
2023-04-14T23:07:47.148Z,5.32
2023-04-14T23:10:14.314Z,5.50
2023-04-14T23:12:40.936Z,5.55
2023-04-14T23:15:07.978Z,5.55
2023-04-14T23:17:34.817Z,5.43
2023-04-14T23:20:01.880Z,4.68
2023-04-14T23:22:29.574Z,5.30
2023-04-14T23:24:56.136Z,5.18
2023-04-14T23:27:23.871Z,5.22
2023-04-14T23:29:50.339Z,4.80
2023-04-14T23:32:16.868Z,4.60
2023-04-14T23:34:43.358Z,4.47
2023-04-14T23:37:09.848Z,4.53
2023-04-14T23:39:36.854Z,4.70
2023-04-14T23:42:03.380Z,4.90
2023-04-14T23:44:29.879Z,4.72
2023-04-14T23:46:56.410Z,4.50
2023-04-14T23:49:24.174Z,5.03
2023-04-14T23:52:00.959Z,4.90
2023-04-14T23:54:27.776Z,3.95
2023-04-14T23:56:54.318Z,4.78
2023-04-14T23:59:20.729Z,4.47
